Time;durP1;ratioP1;P1;durP2;ratioP2;P2;SDS_P1;SDS_P2;PMS_P1;PMS_P2;Temp;Humidity;BMP_temperature;BMP_pressure;BME280_temperature;BME280_humidity;BME280_pressure;Samples;Min_cycle;Max_cycle;Signal;HPM_P1;HPM_P2
2023/06/21 00:00:45;;;;;;;25.52;21.45;;;;;;;18.82;100.00;101240.91;4971375;28;20492;-77
2023/06/21 00:03:12;;;;;;;23.60;20.95;;;;;;;18.78;100.00;101245.81;4971329;28;20067;-78
2023/06/21 00:05:39;;;;;;;25.27;20.73;;;;;;;18.76;100.00;101250.22;4971873;28;20083;-77
2023/06/21 00:08:06;;;;;;;24.52;20.25;;;;;;;18.76;100.00;101250.94;4972526;28;20052;-78
2023/06/21 00:10:33;;;;;;;21.30;19.10;;;;;;;18.80;100.00;101253.38;4970642;28;20060;-78
2023/06/21 00:13:01;;;;;;;22.85;20.35;;;;;;;18.81;100.00;101250.22;4972693;28;20048;-78
2023/06/21 00:15:27;;;;;;;23.05;19.80;;;;;;;18.79;100.00;101238.44;4970388;28;20114;-78
2023/06/21 00:17:54;;;;;;;22.02;19.50;;;;;;;18.76;100.00;101236.72;4971340;28;20157;-78
2023/06/21 00:20:21;;;;;;;20.92;18.75;;;;;;;18.74;100.00;101223.72;4971721;28;20484;-78
2023/06/21 00:22:47;;;;;;;21.88;19.38;;;;;;;18.72;100.00;101226.16;4971499;28;20103;-78
2023/06/21 00:25:17;;;;;;;20.83;18.63;;;;;;;18.69;100.00;101227.13;4973582;28;20047;-78
2023/06/21 00:27:44;;;;;;;20.95;18.70;;;;;;;18.66;100.00;101228.09;4974276;28;20093;-77
2023/06/21 00:30:10;;;;;;;20.80;17.73;;;;;;;18.64;100.00;101227.84;4975346;28;20046;-75
2023/06/21 00:32:38;;;;;;;21.27;18.05;;;;;;;18.61;100.00;101236.88;4975728;28;20485;-76
2023/06/21 00:35:06;;;;;;;30.05;18.50;;;;;;;18.61;100.00;101232.25;4975050;28;20043;-76
2023/06/21 00:37:33;;;;;;;20.10;18.00;;;;;;;18.60;100.00;101244.25;4975472;28;20547;-75
2023/06/21 00:40:00;;;;;;;21.05;18.73;;;;;;;18.59;100.00;101250.09;4975720;28;20050;-75
2023/06/21 00:42:27;;;;;;;23.65;19.42;;;;;;;18.55;100.00;101263.78;4973687;28;20499;-76
2023/06/21 00:44:53;;;;;;;23.77;19.20;;;;;;;18.57;100.00;101255.97;4975646;28;20493;-76
2023/06/21 00:47:20;;;;;;;22.75;19.63;;;;;;;18.57;100.00;101257.91;4974834;28;20535;-77
2023/06/21 00:49:46;;;;;;;20.27;18.27;;;;;;;18.56;100.00;101251.78;4973710;28;20051;-76
2023/06/21 00:52:14;;;;;;;20.83;18.73;;;;;;;18.53;100.00;101258.13;4957684;28;20071;-76
2023/06/21 00:54:41;;;;;;;21.48;19.17;;;;;;;18.47;100.00;101256.63;4975230;28;20489;-77
2023/06/21 00:57:08;;;;;;;26.98;19.42;;;;;;;18.42;100.00;101260.75;4975058;28;20062;-75
2023/06/21 00:59:35;;;;;;;21.00;18.60;;;;;;;18.40;100.00;101262.47;4973939;28;20047;-75
2023/06/21 01:02:02;;;;;;;21.02;18.65;;;;;;;18.36;100.00;101270.06;4974008;28;20501;-75
2023/06/21 01:04:31;;;;;;;22.55;18.75;;;;;;;18.37;100.00;101271.53;4972800;28;20505;-76
2023/06/21 01:07:08;;;;;;;20.75;18.65;;;;;;;18.39;100.00;101277.19;4974975;28;20513;-76
2023/06/21 01:09:50;;;;;;;21.75;18.40;;;;;;;18.38;100.00;101281.84;4972878;28;20066;-76
2023/06/21 01:12:26;;;;;;;;;;;;;;;18.42;100.00;101284.28;4975522;28;20102;-76
2023/06/21 01:15:01;;;;;;;18.33;16.52;;;;;;;18.40;100.00;101281.31;4973895;28;19926;-76
2023/06/21 01:17:33;;;;;;;18.27;16.38;;;;;;;18.36;100.00;101280.84;4973023;28;20114;-76
2023/06/21 01:20:05;;;;;;;19.47;17.43;;;;;;;18.32;100.00;101287.19;4974266;28;20134;-76
2023/06/21 01:22:41;;;;;;;19.65;16.73;;;;;;;18.29;100.00;101282.75;4975011;28;20525;-76
2023/06/21 01:25:14;;;;;;;23.67;18.27;;;;;;;18.23;100.00;101281.97;4989343;28;20057;-76
2023/06/21 01:27:52;;;;;;;19.42;17.17;;;;;;;18.22;100.00;101290.53;4974642;28;20541;-76
2023/06/21 01:30:22;;;;;;;20.13;17.88;;;;;;;18.18;100.00;101295.41;4972575;28;20047;-76
2023/06/21 01:32:53;;;;;;;20.63;18.42;;;;;;;18.15;100.00;101294.41;4974551;28;20075;-76
2023/06/21 01:35:24;;;;;;;;;;;;;;;18.17;100.00;101296.63;4972487;28;20055;-77
2023/06/21 01:37:51;;;;;;;18.70;16.85;;;;;;;18.15;100.00;101290.97;4974886;28;19934;-76
2023/06/21 01:40:19;;;;;;;21.70;17.63;;;;;;;18.14;100.00;101295.63;4974314;28;20039;-76
2023/06/21 01:42:46;;;;;;;20.10;17.35;;;;;;;18.14;100.00;101298.31;4974948;28;20048;-76
2023/06/21 01:45:12;;;;;;;21.40;17.95;;;;;;;18.14;100.00;101308.34;4973071;28;20050;-76
2023/06/21 01:47:42;;;;;;;20.75;18.42;;;;;;;18.15;100.00;101305.19;4972777;28;20066;-76
2023/06/21 01:50:11;;;;;;;21.83;19.50;;;;;;;18.16;100.00;101290.50;4972751;28;20512;-76
2023/06/21 01:52:39;;;;;;;23.88;21.48;;;;;;;18.16;100.00;101293.19;4974485;28;20190;-76
2023/06/21 01:55:08;;;;;;;25.02;21.88;;;;;;;18.16;100.00;101295.88;4974616;28;20039;-76
2023/06/21 01:57:35;;;;;;;24.90;22.20;;;;;;;18.15;100.00;101297.09;4974113;28;20047;-76
2023/06/21 02:00:13;;;;;;;27.75;23.27;;;;;;;18.15;100.00;101299.78;4973199;28;20047;-76
2023/06/21 02:02:45;;;;;;;29.75;23.48;;;;;;;18.15;100.00;101302.47;4972238;28;20476;-76
2023/06/21 02:05:13;;;;;;;29.77;23.95;;;;;;;18.16;100.00;101303.22;4973064;28;20039;-76
2023/06/21 02:07:41;;;;;;;28.33;23.85;;;;;;;18.19;100.00;101313.03;4956462;28;20149;-76
2023/06/21 02:10:09;;;;;;;37.90;25.35;;;;;;;18.19;100.00;101310.34;4972255;28;20138;-76
2023/06/21 02:12:36;;;;;;;31.45;25.10;;;;;;;18.19;100.00;101313.78;4974112;28;20107;-76
2023/06/21 02:15:03;;;;;;;36.60;25.42;;;;;;;18.19;100.00;101321.88;4973011;28;20098;-76
2023/06/21 02:17:30;;;;;;;34.90;26.58;;;;;;;18.19;100.00;101316.47;4971562;28;20055;-76
2023/06/21 02:19:57;;;;;;;34.00;25.95;;;;;;;18.19;100.00;101323.81;4974308;28;20500;-77
2023/06/21 02:22:24;;;;;;;32.95;26.60;;;;;;;18.18;100.00;101327.72;4971829;28;20138;-76
2023/06/21 02:24:53;;;;;;;33.35;26.50;;;;;;;18.18;100.00;101328.47;4972774;28;20047;-76
2023/06/21 02:27:19;;;;;;;30.00;25.77;;;;;;;18.20;100.00;101336.81;4973311;28;20174;-76
2023/06/21 02:29:46;;;;;;;33.35;26.13;;;;;;;18.19;100.00;101340.72;4973138;28;20055;-76
2023/06/21 02:32:13;;;;;;;35.40;26.33;;;;;;;18.18;100.00;101333.13;4973368;28;20051;-78
2023/06/21 02:34:42;;;;;;;35.45;25.67;;;;;;;18.18;100.00;101341.22;4988366;28;20055;-76
2023/06/21 02:37:12;;;;;;;33.42;27.33;;;;;;;18.17;100.00;101347.81;4971905;28;20062;-76
2023/06/21 02:39:38;;;;;;;33.25;26.08;;;;;;;18.16;100.00;101349.78;4956100;28;20117;-76
2023/06/21 02:42:05;;;;;;;35.25;27.02;;;;;;;18.15;100.00;101350.25;4972341;28;20051;-77
2023/06/21 02:44:32;;;;;;;36.22;27.85;;;;;;;18.14;100.00;101356.84;4972051;28;20054;-77
2023/06/21 02:46:59;;;;;;;36.92;27.00;;;;;;;18.14;100.00;101348.75;4987738;28;20083;-77
2023/06/21 02:49:26;;;;;;;37.33;26.98;;;;;;;18.12;100.00;101349.25;4972929;28;20743;-77
2023/06/21 02:51:52;;;;;;;36.00;26.98;;;;;;;18.14;100.00;101346.81;4956584;28;20142;-77
2023/06/21 02:54:20;;;;;;;37.85;28.17;;;;;;;18.12;100.00;101345.81;4973048;28;20123;-77
2023/06/21 02:56:46;;;;;;;37.95;28.05;;;;;;;18.11;100.00;101355.09;4973667;28;20048;-77
2023/06/21 02:59:13;;;;;;;36.80;28.77;;;;;;;18.10;100.00;101361.72;4971781;28;20052;-77
2023/06/21 03:01:39;;;;;;;38.50;28.45;;;;;;;18.11;100.00;101366.63;4971549;28;20051;-77
2023/06/21 03:04:06;;;;;;;41.05;28.65;;;;;;;18.09;100.00;101362.91;4971842;28;20301;-77
2023/06/21 03:06:33;;;;;;;43.53;29.17;;;;;;;18.07;100.00;101360.69;4987892;28;20533;-77
2023/06/21 03:09:00;;;;;;;42.83;30.95;;;;;;;18.07;100.00;101368.03;4980027;28;20464;-77
2023/06/21 03:11:27;;;;;;;43.42;30.73;;;;;;;18.08;100.00;101362.19;4974789;28;20050;-77
2023/06/21 03:13:54;;;;;;;42.60;29.58;;;;;;;18.08;100.00;101364.13;4992425;28;20074;-77
2023/06/21 03:16:21;;;;;;;44.53;31.30;;;;;;;18.08;100.00;101364.88;4974665;28;20061;-76
2023/06/21 03:18:48;;;;;;;42.72;30.13;;;;;;;18.09;100.00;101371.00;4975044;28;20082;-76
2023/06/21 03:21:15;;;;;;;42.95;30.83;;;;;;;18.08;100.00;101378.34;4974967;28;20657;-76
2023/06/21 03:23:41;;;;;;;38.90;30.02;;;;;;;18.07;100.00;101386.91;4974691;28;20046;-77
2023/06/21 03:26:09;;;;;;;44.08;30.40;;;;;;;18.07;100.00;101386.91;4992217;28;20086;-76
2023/06/21 03:28:36;;;;;;;40.20;30.20;;;;;;;18.07;100.00;101387.66;4973610;28;20054;-77
2023/06/21 03:31:02;;;;;;;37.47;29.10;;;;;;;18.08;100.00;101388.38;4974759;28;20051;-77
2023/06/21 03:33:30;;;;;;;42.42;30.48;;;;;;;18.10;100.00;101391.34;4973802;28;20138;-76
2023/06/21 03:35:57;;;;;;;39.83;29.77;;;;;;;18.10;100.00;101399.44;4992454;28;20495;-77
2023/06/21 03:38:24;;;;;;;43.03;29.90;;;;;;;18.09;100.00;101403.34;4990149;28;20057;-76
2023/06/21 03:40:51;;;;;;;39.13;30.15;;;;;;;18.08;100.00;101413.38;4974747;28;20486;-77
2023/06/21 03:43:19;;;;;;;40.10;29.17;;;;;;;18.10;100.00;101421.72;4989778;28;20054;-77
2023/06/21 03:45:47;;;;;;;38.97;29.58;;;;;;;18.12;100.00;101421.97;4974604;28;20055;-76
2023/06/21 03:48:15;;;;;;;38.22;28.52;;;;;;;18.11;100.00;101423.19;4974327;28;20109;-77
2023/06/21 03:50:41;;;;;;;41.05;29.73;;;;;;;18.10;100.00;101413.63;4992333;28;20047;-77
2023/06/21 03:53:08;;;;;;;38.45;28.70;;;;;;;18.09;100.00;101414.09;4992066;28;20089;-77
2023/06/21 03:55:37;;;;;;;35.72;28.08;;;;;;;18.07;100.00;101417.28;4990571;28;20058;-77
2023/06/21 03:58:05;;;;;;;44.22;30.27;;;;;;;18.10;100.00;101418.28;4990527;28;20055;-77
2023/06/21 04:00:32;;;;;;;36.67;28.85;;;;;;;18.09;100.00;101425.63;4977718;28;20114;-77
2023/06/21 04:02:58;;;;;;;39.70;28.27;;;;;;;18.12;100.00;101430.06;4995821;28;20038;-77
2023/06/21 04:05:25;;;;;;;40.97;29.85;;;;;;;18.11;100.00;101428.59;4977190;28;20523;-78
2023/06/21 04:07:52;;;;;;;42.70;28.70;;;;;;;18.11;100.00;101435.94;4977912;28;20055;-77
2023/06/21 04:10:18;;;;;;;40.40;27.67;;;;;;;18.14;100.00;101445.75;4993142;28;20051;-77
2023/06/21 04:12:45;;;;;;;41.63;29.23;;;;;;;18.16;100.00;101440.63;4995130;28;20050;-76
2023/06/21 04:15:12;;;;;;;38.03;27.33;;;;;;;18.18;100.00;101446.28;4977644;28;20055;-77
2023/06/21 04:17:40;;;;;;;38.88;27.63;;;;;;;18.17;100.00;101444.81;4994999;28;20075;-76
2023/06/21 04:20:13;;;;;;;35.50;28.67;;;;;;;18.15;100.00;101439.16;4977397;28;20053;-76
2023/06/21 04:22:44;;;;;;;38.47;27.55;;;;;;;18.14;100.00;101441.09;4993618;28;20051;-76
2023/06/21 04:25:11;;;;;;;40.78;28.55;;;;;;;18.18;100.00;101449.00;4977360;28;20151;-76
2023/06/21 04:27:40;;;;;;;38.78;28.38;;;;;;;18.23;100.00;101440.97;4994604;28;20173;-78
2023/06/21 04:30:11;;;;;;;34.40;26.88;;;;;;;18.32;100.00;101443.50;4995207;28;20047;-76
2023/06/21 04:32:44;;;;;;;38.25;27.85;;;;;;;18.43;100.00;101450.94;4995193;28;20448;-76
2023/06/21 04:35:14;;;;;;;38.13;27.73;;;;;;;18.52;100.00;101460.81;4995220;28;20085;-76
2023/06/21 04:37:44;;;;;;;36.25;27.50;;;;;;;18.62;100.00;101464.84;4994769;28;20500;-77
2023/06/21 04:40:16;;;;;;;37.17;28.50;;;;;;;18.72;100.00;101466.19;4994868;28;20054;-77
2023/06/21 04:42:46;;;;;;;33.30;26.52;;;;;;;18.80;100.00;101469.16;4994665;28;20270;-76
2023/06/21 04:45:16;;;;;;;32.78;25.85;;;;;;;18.92;100.00;101476.13;4994863;28;20054;-76
2023/06/21 04:47:46;;;;;;;33.70;25.20;;;;;;;19.07;100.00;101473.28;4994897;28;20178;-76
2023/06/21 04:50:14;;;;;;;36.03;26.80;;;;;;;19.16;100.00;101467.72;4994618;28;20043;-76
2023/06/21 04:52:48;;;;;;;38.67;26.20;;;;;;;19.07;100.00;101463.22;4995167;28;20050;-76
2023/06/21 04:55:17;;;;;;;33.65;26.10;;;;;;;19.02;100.00;101460.50;4994474;28;20067;-76
2023/06/21 04:57:47;;;;;;;33.35;26.15;;;;;;;19.70;100.00;101459.66;4994362;28;20102;-77
2023/06/21 05:00:14;;;;;;;32.55;25.02;;;;;;;20.00;100.00;101460.72;4994618;28;20125;-77
2023/06/21 05:02:40;;;;;;;31.98;25.70;;;;;;;19.89;100.00;101466.09;4994414;28;20047;-78
2023/06/21 05:05:08;;;;;;;35.15;26.60;;;;;;;20.37;97.78;101473.34;4994646;28;20050;-78
2023/06/21 05:07:37;;;;;;;32.95;25.52;;;;;;;20.98;93.63;101471.38;4976782;28;20058;-78
2023/06/21 05:10:08;;;;;;;32.28;25.30;;;;;;;21.56;89.90;101476.19;4993807;28;20057;-78
2023/06/21 05:12:36;;;;;;;31.27;24.60;;;;;;;22.02;85.60;101480.19;4977046;28;20130;-78
2023/06/21 05:15:03;;;;;;;27.92;24.13;;;;;;;22.59;83.41;101477.34;4994721;28;20125;-77
2023/06/21 05:17:30;;;;;;;31.13;25.10;;;;;;;22.63;82.87;101483.22;4993771;28;20042;-79
2023/06/21 05:19:56;;;;;;;33.72;23.73;;;;;;;23.06;80.42;101487.31;4994798;28;20042;-79
2023/06/21 05:22:23;;;;;;;28.73;23.58;;;;;;;22.40;81.54;101473.03;4994011;28;20142;-78
2023/06/21 05:24:49;;;;;;;30.70;24.40;;;;;;;21.99;83.29;101479.19;4994060;28;20074;-77
2023/06/21 05:27:16;;;;;;;28.17;22.90;;;;;;;22.52;81.83;101477.13;4994347;28;20437;-75
2023/06/21 05:29:42;;;;;;;25.85;22.38;;;;;;;23.54;77.57;101481.88;4994346;28;20519;-76
2023/06/21 05:32:10;;;;;;;29.45;21.77;;;;;;;23.09;77.49;101489.00;4976179;28;20507;-76
2023/06/21 05:34:36;;;;;;;30.27;22.70;;;;;;;23.79;76.44;101495.41;4994017;28;20046;-76
2023/06/21 05:37:03;;;;;;;31.40;23.23;;;;;;;24.36;73.24;101496.13;4994526;28;20047;-76
2023/06/21 05:39:29;;;;;;;27.58;22.15;;;;;;;24.76;72.65;101489.53;4993082;28;20057;-75
2023/06/21 05:41:56;;;;;;;27.48;21.52;;;;;;;24.73;70.32;101500.72;4994238;28;20047;-77
2023/06/21 05:44:22;;;;;;;27.92;22.38;;;;;;;24.13;72.26;101493.69;4976378;28;20055;-77
2023/06/21 05:46:49;;;;;;;25.25;21.50;;;;;;;24.06;74.67;101505.16;4994264;28;20042;-77
2023/06/21 05:49:17;;;;;;;26.63;21.42;;;;;;;24.11;73.95;101514.50;4993770;28;20051;-76
2023/06/21 05:51:43;;;;;;;28.63;22.45;;;;;;;23.68;75.57;101520.00;4994033;28;20070;-77
2023/06/21 05:54:10;;;;;;;25.80;21.50;;;;;;;23.22;77.62;101517.00;4993185;28;20047;-78
2023/06/21 05:56:40;;;;;;;24.90;21.02;;;;;;;23.14;77.65;101509.94;4993919;28;20047;-77
2023/06/21 05:59:06;;;;;;;29.48;22.42;;;;;;;23.34;78.20;101525.03;4993979;28;20086;-77
2023/06/21 06:01:33;;;;;;;29.05;20.98;;;;;;;23.38;77.42;101531.66;4993784;28;20051;-74
2023/06/21 06:03:59;;;;;;;24.27;19.73;;;;;;;23.23;79.06;101529.34;4993917;28;20523;-76
2023/06/21 06:06:35;;;;;;;24.02;19.90;;;;;;;23.21;78.51;101534.53;4993667;28;20039;-77
2023/06/21 06:09:02;;;;;;;23.50;19.58;;;;;;;23.13;78.88;101538.34;4993293;28;20090;-76
2023/06/21 06:11:29;;;;;;;27.15;20.35;;;;;;;23.00;79.81;101540.94;4993362;28;20492;-76
2023/06/21 06:13:55;;;;;;;28.15;19.13;;;;;;;22.72;80.81;101547.31;4993592;28;20043;-76
2023/06/21 06:16:22;;;;;;;20.30;18.20;;;;;;;22.45;80.37;101548.94;4993588;28;20043;-76
2023/06/21 06:18:48;;;;;;;20.98;17.10;;;;;;;22.22;82.13;101561.19;4993829;28;20102;-76
2023/06/21 06:21:15;;;;;;;18.33;16.38;;;;;;;22.08;81.98;101559.50;4992807;28;20494;-76
2023/06/21 06:23:41;;;;;;;21.48;16.63;;;;;;;22.00;83.03;101566.66;4993069;28;20195;-76
2023/06/21 06:26:08;;;;;;;18.02;16.15;;;;;;;22.07;83.23;101566.16;4975450;28;20562;-76
2023/06/21 06:28:36;;;;;;;18.95;15.95;;;;;;;21.94;83.43;101564.00;4993471;28;20133;-76
2023/06/21 06:31:03;;;;;;;19.50;16.13;;;;;;;21.85;83.57;101569.69;4993816;28;20043;-76
2023/06/21 06:33:29;;;;;;;21.38;14.52;;;;;;;22.05;84.73;101582.19;4975461;28;20053;-76
2023/06/21 06:35:56;;;;;;;20.52;15.45;;;;;;;22.12;82.83;101579.72;4993403;28;20069;-76
2023/06/21 06:38:22;;;;;;;16.80;14.30;;;;;;;22.14;84.00;101579.94;4992648;28;20523;-76
2023/06/21 06:40:49;;;;;;;22.10;15.63;;;;;;;22.31;82.48;101579.88;4993453;28;20110;-76
2023/06/21 06:43:15;;;;;;;21.48;14.00;;;;;;;22.46;82.29;101584.94;4993257;28;20050;-76
2023/06/21 06:45:42;;;;;;;17.73;13.85;;;;;;;22.27;81.42;101590.97;4993236;28;20139;-76
2023/06/21 06:48:08;;;;;;;19.17;14.40;;;;;;;22.19;82.22;101590.03;4993134;28;20042;-76
2023/06/21 06:50:38;;;;;;;15.27;13.40;;;;;;;22.30;82.04;101597.38;4993018;28;20049;-76
2023/06/21 06:53:05;;;;;;;14.95;13.45;;;;;;;22.23;82.61;101593.22;4992757;28;20077;-76
2023/06/21 06:55:32;;;;;;;19.77;13.95;;;;;;;22.27;82.19;101596.41;4992843;28;20051;-76
2023/06/21 06:57:58;;;;;;;15.32;13.48;;;;;;;22.24;81.87;101596.66;4993341;28;20053;-76
2023/06/21 07:00:31;;;;;;;15.95;14.00;;;;;;;22.32;81.60;101596.88;4975366;28;20535;-76
2023/06/21 07:02:58;;;;;;;15.95;14.30;;;;;;;22.23;81.69;101604.06;4993254;28;20568;-76
2023/06/21 07:05:25;;;;;;;15.93;14.23;;;;;;;22.34;81.19;101614.13;4992584;28;20519;-76
2023/06/21 07:07:53;;;;;;;14.93;13.27;;;;;;;22.36;81.59;101608.94;4992704;28;20424;-77
2023/06/21 07:10:20;;;;;;;15.27;13.77;;;;;;;22.33;81.10;101622.78;4992108;28;20158;-76
2023/06/21 07:12:46;;;;;;;16.63;14.88;;;;;;;22.56;81.33;101624.13;4993257;28;20053;-76
2023/06/21 07:15:13;;;;;;;19.90;15.20;;;;;;;22.59;78.10;101621.13;4993155;28;20552;-76
2023/06/21 07:17:39;;;;;;;17.63;15.82;;;;;;;22.49;78.84;101630.81;4992863;28;20071;-76
2023/06/21 07:20:08;;;;;;;19.88;15.80;;;;;;;22.59;79.78;101623.13;4992997;28;20041;-76
2023/06/21 07:22:35;;;;;;;18.90;15.90;;;;;;;22.87;78.29;101620.25;4991886;28;20043;-76
2023/06/21 07:25:02;;;;;;;17.65;15.32;;;;;;;23.18;77.44;101625.22;4993138;28;20051;-76
2023/06/21 07:27:29;;;;;;;18.60;15.30;;;;;;;23.33;77.66;101624.81;4992299;28;20123;-77
2023/06/21 07:29:56;;;;;;;18.60;15.27;;;;;;;23.10;77.99;101628.97;4992692;28;20047;-74
2023/06/21 07:32:23;;;;;;;17.00;14.88;;;;;;;23.08;76.82;101621.34;4974944;28;20047;-75
2023/06/21 07:34:54;;;;;;;15.63;13.93;;;;;;;23.23;76.08;101624.41;4991422;28;20054;-75
2023/06/21 07:37:20;;;;;;;16.67;14.63;;;;;;;23.32;74.37;101631.50;4992216;28;20066;-75
2023/06/21 07:39:47;;;;;;;17.23;13.93;;;;;;;23.37;75.16;101622.56;4992992;28;20050;-75
2023/06/21 07:42:22;;;;;;;15.88;14.15;;;;;;;23.37;74.20;101628.00;4992257;28;20134;-75
2023/06/21 07:44:50;;;;;;;15.55;13.98;;;;;;;23.32;72.36;101631.50;4992801;28;20138;-75
2023/06/21 07:47:17;;;;;;;19.85;14.32;;;;;;;23.16;73.33;101626.94;4992498;28;20114;-75
2023/06/21 07:49:44;;;;;;;21.88;14.23;;;;;;;22.95;74.16;101632.78;4991989;28;20046;-75
2023/06/21 07:52:11;;;;;;;14.63;13.23;;;;;;;23.32;73.48;101638.91;4974636;28;20051;-75
2023/06/21 07:54:38;;;;;;;12.57;11.38;;;;;;;23.63;73.03;101635.69;4992432;28;20582;-75
2023/06/21 07:57:05;;;;;;;13.43;11.68;;;;;;;23.85;72.22;101640.91;4992622;28;20077;-75
2023/06/21 07:59:32;;;;;;;11.60;10.50;;;;;;;23.82;70.83;101641.91;4992233;28;20046;-75
2023/06/21 08:01:58;;;;;;;12.15;11.05;;;;;;;23.98;70.88;101632.09;4992490;28;20511;-75
2023/06/21 08:04:25;;;;;;;10.77;9.50;;;;;;;24.23;69.80;101638.97;4991417;28;20047;-75
2023/06/21 08:06:52;;;;;;;9.50;8.68;;;;;;;24.06;69.03;101640.41;4992663;28;20038;-75
2023/06/21 08:09:18;;;;;;;12.30;8.80;;;;;;;23.82;69.69;101644.63;4991232;28;20578;-75
2023/06/21 08:11:45;;;;;;;9.77;8.82;;;;;;;23.66;71.28;101647.50;4992462;28;20054;-75
2023/06/21 08:14:11;;;;;;;9.07;8.18;;;;;;;23.65;70.26;101641.34;4974935;28;20047;-75
2023/06/21 08:16:38;;;;;;;9.52;8.63;;;;;;;23.73;70.57;101646.94;4992331;28;20348;-75
2023/06/21 08:19:04;;;;;;;8.60;7.90;;;;;;;23.81;72.19;101650.56;4991957;28;20039;-75
2023/06/21 08:21:31;;;;;;;7.90;7.10;;;;;;;23.78;68.58;101648.88;4991818;28;20047;-74
2023/06/21 08:23:57;;;;;;;8.35;6.18;;;;;;;23.74;69.35;101648.41;4992413;28;20054;-76
2023/06/21 08:26:24;;;;;;;7.45;6.10;;;;;;;23.84;70.10;101653.00;4991807;28;20082;-75
2023/06/21 08:28:51;;;;;;;6.20;5.60;;;;;;;24.30;68.24;101650.53;4991988;28;20476;-75
2023/06/21 08:31:17;;;;;;;5.60;5.20;;;;;;;24.69;66.46;101658.94;4991880;28;20070;-76
2023/06/21 08:33:44;;;;;;;5.30;4.80;;;;;;;24.96;66.25;101665.25;4991822;28;20043;-76
2023/06/21 08:36:11;;;;;;;5.45;5.05;;;;;;;24.99;65.60;101668.91;4991685;28;20047;-78
2023/06/21 08:38:38;;;;;;;6.90;4.95;;;;;;;25.32;64.47;101668.38;4991798;28;20840;-74
2023/06/21 08:41:05;;;;;;;5.53;5.00;;;;;;;25.49;64.68;101679.75;4990425;28;20149;-74
2023/06/21 08:43:31;;;;;;;11.20;5.97;;;;;;;25.72;63.65;101676.63;4991818;28;20567;-74
2023/06/21 08:46:03;;;;;;;6.57;6.07;;;;;;;25.78;63.06;101667.09;4994525;28;20051;-74
2023/06/21 08:48:35;;;;;;;10.25;9.38;;;;;;;26.17;60.91;101676.53;4994522;28;20506;-76
2023/06/21 08:51:04;;;;;;;9.60;8.85;;;;;;;26.21;60.96;101663.28;4995124;28;20500;-76
2023/06/21 08:53:45;;;;;;;9.43;8.73;;;;;;;26.24;61.16;101682.09;4994436;28;20051;-74
2023/06/21 08:56:16;;;;;;;8.63;7.95;;;;;;;26.58;60.02;101681.41;4994944;28;20578;-74
2023/06/21 08:58:51;;;;;;;15.10;8.02;;;;;;;26.67;58.62;101680.97;4995343;28;20516;-74
2023/06/21 09:01:21;;;;;;;7.82;7.22;;;;;;;26.95;59.27;101679.59;4995050;28;20058;-74
2023/06/21 09:03:57;;;;;;;7.45;6.85;;;;;;;26.99;58.27;101686.22;4994728;28;20061;-74
2023/06/21 09:06:26;;;;;;;8.45;7.75;;;;;;;26.93;56.36;101688.31;4994512;28;20046;-74
2023/06/21 09:08:53;;;;;;;6.28;5.82;;;;;;;26.46;58.75;101685.63;4994592;28;20184;-74
2023/06/21 09:11:21;;;;;;;6.15;5.65;;;;;;;26.36;58.00;101687.34;4994426;28;20055;-74
2023/06/21 09:13:49;;;;;;;7.57;6.13;;;;;;;26.78;56.87;101688.19;4995035;28;20137;-75
2023/06/21 09:16:16;;;;;;;5.40;5.00;;;;;;;27.12;55.50;101685.44;4994578;28;20050;-76
2023/06/21 09:18:43;;;;;;;4.70;4.40;;;;;;;26.88;57.29;101691.91;4994135;28;20049;-75
2023/06/21 09:21:11;;;;;;;4.00;3.70;;;;;;;26.95;56.08;101691.25;4994157;28;20101;-75
2023/06/21 09:23:39;;;;;;;2.90;2.80;;;;;;;26.80;54.56;101697.28;4994522;28;20975;-75
2023/06/21 09:26:08;;;;;;;6.72;2.13;;;;;;;26.01;53.52;101689.22;4977236;28;20098;-76
2023/06/21 09:28:35;;;;;;;2.15;1.95;;;;;;;26.17;54.92;101693.63;4994134;28;20070;-75
2023/06/21 09:31:02;;;;;;;1.80;1.70;;;;;;;26.58;54.74;101692.31;4994256;28;20046;-76
2023/06/21 09:33:29;;;;;;;1.67;1.58;;;;;;;26.74;52.60;101685.78;4994004;28;20500;-75
2023/06/21 09:35:57;;;;;;;1.60;1.50;;;;;;;26.65;51.14;101691.69;4994126;28;20436;-76
2023/06/21 09:38:26;;;;;;;1.50;1.40;;;;;;;26.45;51.87;101695.81;4992340;28;20434;-77
2023/06/21 09:40:52;;;;;;;1.60;1.52;;;;;;;26.44;52.66;101701.81;4994449;28;20122;-77
2023/06/21 09:43:20;;;;;;;1.80;1.70;;;;;;;26.66;50.41;101690.41;4993491;28;20047;-75
2023/06/21 09:46:03;;;;;;;1.80;1.42;;;;;;;27.30;52.60;101698.13;4992723;28;20057;-76
2023/06/21 09:48:31;;;;;;;7.32;6.43;;;;;;;27.60;50.54;101699.66;4991752;28;20090;-76
2023/06/21 09:51:04;;;;;;;2.20;1.75;;;;;;;27.39;47.59;101697.66;4994360;28;20046;-76
2023/06/21 09:53:31;;;;;;;1.60;1.50;;;;;;;27.28;48.22;101708.13;4993292;28;20130;-76
2023/06/21 09:56:01;;;;;;;1.80;1.70;;;;;;;27.56;49.20;101697.25;4993465;28;20101;-75
2023/06/21 09:58:32;;;;;;;1.75;1.65;;;;;;;28.08;49.44;101704.31;4975670;28;20118;-76
2023/06/21 10:00:59;;;;;;;2.03;1.85;;;;;;;28.25;48.91;101692.22;4993458;28;20173;-76
2023/06/21 10:03:27;;;;;;;2.22;2.03;;;;;;;28.19;46.58;101701.28;4992170;28;20598;-77
2023/06/21 10:05:59;;;;;;;1.80;1.70;;;;;;;28.41;47.52;101705.41;4994159;28;20039;-77
2023/06/21 10:08:27;;;;;;;3.17;2.70;;;;;;;28.60;46.05;101709.84;4992732;28;20058;-77
2023/06/21 10:10:55;;;;;;;4.68;1.90;;;;;;;28.85;45.87;101710.84;4994292;28;20138;-76
2023/06/21 10:13:29;;;;;;;3.47;1.92;;;;;;;29.08;47.30;101714.34;4993098;28;20046;-77
2023/06/21 10:15:56;;;;;;;2.58;1.67;;;;;;;29.25;45.73;101713.78;4993549;28;20074;-77
2023/06/21 10:18:23;;;;;;;1.73;1.63;;;;;;;29.21;44.20;101727.13;4993384;28;20107;-77
2023/06/21 10:20:54;;;;;;;2.10;1.77;;;;;;;28.83;44.40;101729.84;4993954;28;20133;-75
2023/06/21 10:23:21;;;;;;;2.40;2.20;;;;;;;28.62;43.37;101729.22;4993483;28;20570;-76
2023/06/21 10:25:50;;;;;;;2.20;2.10;;;;;;;28.06;44.81;101726.03;4993820;28;20420;-77
2023/06/21 10:28:17;;;;;;;2.22;2.00;;;;;;;27.68;44.93;101728.53;4993280;28;20047;-75
2023/06/21 10:30:46;;;;;;;3.28;2.00;;;;;;;28.45;45.60;101719.47;4993371;28;20054;-75
2023/06/21 10:33:16;;;;;;;2.67;1.90;;;;;;;28.83;44.25;101721.59;4993707;28;20492;-78
2023/06/21 10:35:47;;;;;;;2.30;1.80;;;;;;;29.20;43.77;101720.94;4993592;28;20576;-77
2023/06/21 10:38:28;;;;;;;3.55;2.15;;;;;;;29.29;43.43;101729.88;4993356;28;20138;-77
2023/06/21 10:40:56;;;;;;;1.95;1.85;;;;;;;29.25;42.94;101732.25;4975958;28;20502;-76
2023/06/21 10:43:23;;;;;;;2.45;1.88;;;;;;;29.13;43.54;101735.38;4992734;28;20047;-75
2023/06/21 10:45:51;;;;;;;3.90;1.80;;;;;;;28.23;42.20;101741.28;4993496;28;20047;-76
2023/06/21 10:48:18;;;;;;;5.30;1.83;;;;;;;28.09;42.01;101729.69;4993391;28;20409;-78
2023/06/21 10:50:45;;;;;;;3.53;1.73;;;;;;;28.03;43.21;101732.56;4993469;28;20102;-77
2023/06/21 10:53:17;;;;;;;3.30;1.85;;;;;;;27.62;43.90;101738.13;4993316;28;20047;-76
2023/06/21 10:55:48;;;;;;;2.53;1.80;;;;;;;27.22;45.04;101738.34;4993728;28;20096;-78
2023/06/21 10:58:16;;;;;;;2.13;1.83;;;;;;;27.27;44.34;101737.47;4999555;28;20573;-77
2023/06/21 11:00:47;;;;;;;1.70;1.60;;;;;;;27.64;45.04;101741.06;5001068;28;20057;-77
2023/06/21 11:03:16;;;;;;;1.90;1.80;;;;;;;28.12;43.37;101745.75;5002419;28;20042;-77
2023/06/21 11:05:44;;;;;;;2.20;2.00;;;;;;;28.50;44.29;101742.50;5002908;28;20120;-77
2023/06/21 11:08:14;;;;;;;2.65;2.00;;;;;;;28.15;43.43;101752.16;4983826;28;20061;-77
2023/06/21 11:10:49;;;;;;;1.93;1.83;;;;;;;28.58;42.63;101753.47;5000808;28;20062;-77
2023/06/21 11:13:17;;;;;;;2.03;1.90;;;;;;;28.61;42.44;101758.59;5000285;28;20286;-77
2023/06/21 11:15:47;;;;;;;2.40;2.20;;;;;;;28.13;43.10;101758.19;5002143;28;20089;-77